| time (UTC) | temp F | wind direction | speed MPH | gust MPH | rain 1hr in | rain 24hr in | rain mn in | humidity % | barometer mb |
| 20260509201536 | 56 | 0 | 0.0 | 0.0 | 0.01 | 0.29 | 0.29 | 95 | 1009.7 |
| 20260509201014 | 55 | 0 | 0.0 | 0.0 | 0.01 | 0.29 | 0.29 | 95 | 1009.8 |
| 20260509200516 | 55 | 0 | 0.0 | 0.0 | 0.01 | 0.29 | 0.29 | 94 | 1009.8 |
| 20260509200035 | 55 | 0 | 0.0 | 0.0 | 0.01 | 0.29 | 0.29 | 94 | 1009.6 |
| 20260509195514 | 55 | 0 | 0.0 | 0.0 | 0.01 | 0.29 | 0.29 | 94 | 1009.7 |
| 20260509195014 | 55 | 0 | 0.0 | 0.0 | 0.01 | 0.29 | 0.29 | 94 | 1009.8 |
| 20260509194535 | 55 | 0 | 0.0 | 0.0 | 0.02 | 0.29 | 0.29 | 94 | 1009.8 |
| 20260509194013 | 55 | 0 | 0.0 | 0.0 | 0.02 | 0.29 | 0.29 | 94 | 1010.0 |
| 20260509193513 | 55 | 0 | 0.0 | 0.0 | 0.02 | 0.29 | 0.29 | 94 | 1010.1 |
| 20260509193032 | 55 | 0 | 0.0 | 0.0 | 0.02 | 0.29 | 0.29 | 94 | 1010.2 |
| 20260509192514 | 55 | 0 | 0.0 | 0.0 | 0.02 | 0.29 | 0.29 | 94 | 1010.3 |
| 20260509192012 | 55 | 0 | 0.0 | 0.0 | 0.02 | 0.29 | 0.29 | 94 | 1010.4 |
| 20260509191533 | 55 | 0 | 0.0 | 4.0 | 0.01 | 0.28 | 0.28 | 94 | 1010.4 |
| 20260509191013 | 55 | 0 | 0.0 | 4.0 | 0.01 | 0.28 | 0.28 | 94 | 1010.4 |
| 20260509190512 | 55 | 0 | 0.0 | 0.0 | 0.02 | 0.28 | 0.28 | 94 | 1010.5 |
| 20260509190033 | 55 | 0 | 0.0 | 0.0 | 0.02 | 0.28 | 0.28 | 94 | 1010.5 |
| 20260509185514 | 55 | 0 | 0.0 | 5.0 | 0.02 | 0.28 | 0.28 | 94 | 1010.6 |
| 20260509185016 | 55 | 0 | 1.0 | 5.0 | 0.02 | 0.28 | 0.28 | 94 | 1010.6 |
| 20260509184543 | 55 | 0 | 0.0 | 5.0 | 0.02 | 0.27 | 0.27 | 95 | 1010.6 |
| 20260509184012 | 55 | 0 | 0.0 | 5.0 | 0.02 | 0.27 | 0.27 | 94 | 1010.5 |
| 20260509183511 | 55 | 0 | 0.0 | 0.0 | 0.03 | 0.27 | 0.27 | 95 | 1010.4 |
| 20260509183033 | 55 | 0 | 0.0 | 0.0 | 0.03 | 0.27 | 0.27 | 95 | 1010.5 |
| 20260509182512 | 55 | 0 | 0.0 | 0.0 | 0.03 | 0.27 | 0.27 | 95 | 1010.5 |
| 20260509182015 | 55 | 0 | 0.0 | 3.0 | 0.03 | 0.27 | 0.27 | 95 | 1010.6 |
| 20260509181531 | 54 | 0 | 0.0 | 4.0 | 0.04 | 0.27 | 0.27 | 95 | 1010.5 |
| 20260509181020 | 54 | 0 | 0.0 | 4.0 | 0.03 | 0.26 | 0.26 | 95 | 1010.4 |
| 20260509180515 | 54 | 0 | 0.0 | 4.0 | 0.04 | 0.26 | 0.26 | 95 | 1010.6 |
| 20260509180031 | 54 | 0 | 0.0 | 3.0 | 0.05 | 0.26 | 0.26 | 95 | 1010.8 |
| 20260509175512 | 54 | 0 | 0.0 | 3.0 | 0.06 | 0.26 | 0.26 | 95 | 1010.8 |
| 20260509175013 | 54 | 0 | 0.0 | 0.0 | 0.06 | 0.26 | 0.26 | 95 | 1010.9 |
| 20260509174536 | 54 | 0 | 0.0 | 4.0 | 0.06 | 0.25 | 0.25 | 95 | 1010.9 |
| 20260509174013 | 54 | 0 | 0.0 | 4.0 | 0.07 | 0.25 | 0.25 | 95 | 1011.0 |
| 20260509173513 | 54 | 0 | 0.0 | 4.0 | 0.06 | 0.24 | 0.24 | 95 | 1011.1 |
| 20260509173036 | 53 | 0 | 0.0 | 0.0 | 0.07 | 0.24 | 0.24 | 95 | 1011.2 |
| 20260509172513 | 53 | 0 | 0.0 | 0.0 | 0.08 | 0.24 | 0.24 | 95 | 1011.2 |
| 20260509172013 | 53 | 0 | 0.0 | 0.0 | 0.09 | 0.24 | 0.24 | 95 | 1011.2 |
| 20260509171534 | 53 | 0 | 0.0 | 0.0 | 0.09 | 0.23 | 0.23 | 95 | 1011.2 |
| 20260509171012 | 53 | 0 | 0.0 | 0.0 | 0.08 | 0.22 | 0.22 | 95 | 1011.2 |
| 20260509170514 | 53 | 0 | 0.0 | 0.0 | 0.09 | 0.22 | 0.22 | 95 | 1011.3 |
| 20260509170035 | 53 | 0 | 0.0 | 5.0 | 0.09 | 0.21 | 0.21 | 95 | 1011.2 |
| 20260509165513 | 53 | 0 | 1.0 | 5.0 | 0.08 | 0.20 | 0.20 | 94 | 1011.0 |
| 20260509165013 | 53 | 0 | 0.0 | 0.0 | 0.09 | 0.20 | 0.20 | 94 | 1010.6 |
| 20260509164529 | 53 | 0 | 0.0 | 0.0 | 0.09 | 0.19 | 0.19 | 94 | 1011.0 |
| 20260509164013 | 53 | 0 | 0.0 | 0.0 | 0.09 | 0.18 | 0.18 | 94 | 1011.1 |
| 20260509163518 | 53 | 0 | 0.0 | 0.0 | 0.10 | 0.18 | 0.18 | 94 | 1011.1 |
| 20260509163034 | 53 | 0 | 0.0 | 0.0 | 0.09 | 0.16 | 0.16 | 94 | 1011.0 |
| 20260509162514 | 53 | 0 | 0.0 | 3.0 | 0.10 | 0.16 | 0.16 | 94 | 1010.9 |
| 20260509162012 | 53 | 0 | 0.0 | 3.0 | 0.11 | 0.15 | 0.15 | 94 | 1011.0 |
| 20260509161533 | 53 | 205 | 0.0 | 4.0 | 0.10 | 0.14 | 0.14 | 94 | 1010.9 |
| 20260509161014 | 53 | 0 | 0.0 | 4.0 | 0.11 | 0.14 | 0.14 | 93 | 1011.1 |
| 20260509160513 | 53 | 0 | 2.0 | 4.0 | 0.11 | 0.13 | 0.13 | 93 | 1011.2 |
| 20260509160034 | 53 | 0 | 0.0 | 4.0 | 0.10 | 0.12 | 0.12 | 93 | 1011.3 |
| 20260509155512 | 53 | 0 | 0.0 | 4.0 | 0.11 | 0.12 | 0.12 | 93 | 1011.3 |
| 20260509155013 | 53 | 202 | 0.0 | 5.0 | 0.10 | 0.11 | 0.11 | 93 | 1011.4 |
| 20260509154530 | 53 | 0 | 0.0 | 5.0 | 0.09 | 0.10 | 0.10 | 93 | 1011.5 |
| 20260509154011 | 53 | 0 | 1.0 | 5.0 | 0.09 | 0.09 | 0.09 | 92 | 1011.6 |
| 20260509153513 | 53 | 0 | 0.0 | 5.0 | 0.08 | 0.08 | 0.08 | 92 | 1011.6 |
| 20260509153041 | 53 | 198 | 0.0 | 4.0 | 0.07 | 0.07 | 0.07 | 91 | 1011.6 |
| 20260509152512 | 54 | 0 | 0.0 | 3.0 | 0.05 | 0.05 | 0.05 | 91 | 1011.8 |
| 20260509152026 | 54 | 0 | 0.0 | 0.0 | 0.04 | 0.04 | 0.04 | 91 | 1011.9 |
| 20260509151530 | 54 | 0 | 0.0 | 0.0 | 0.03 | 0.03 | 0.03 | 91 | 1011.8 |
| 20260509151012 | 54 | 0 | 0.0 | 0.0 | 0.02 | 0.02 | 0.02 | 91 | 1011.7 |
| 20260509150511 | 54 | 0 | 0.0 | 0.0 | 0.02 | 0.02 | 0.02 | 91 | 1011.6 |
| 20260509150039 | 54 | 0 | 0.0 | 0.0 | 0.02 | 0.02 | 0.02 | 91 | 1011.5 |
| 20260509145514 | 53 | 0 | 0.0 | 0.0 | 0.01 | 0.01 | 0.01 | 90 | 1011.5 |
| 20260509145018 | 53 | 0 | 0.0 | 5.0 | 0.01 | 0.01 | 0.01 | 90 | 1011.5 |
| 20260509144548 | 53 | 0 | 0.0 | 6.0 | 0.01 | 0.01 | 0.01 | 90 | 1011.5 |
| 20260509144016 | 53 | 0 | 3.0 | 7.0 | 0.00 | 0.00 | 0.00 | 90 | 1011.5 |
| 20260509143514 | 54 | 182 | 4.0 | 7.0 | 0.00 | 0.00 | 0.00 | 91 | 1011.4 |
| 20260509143030 | 53 | 0 | 0.0 | 0.0 | 0.00 | 0.00 | 0.00 | 91 | 1011.4 |
| 20260509142515 | 53 | 0 | 0.0 | 0.0 | 0.00 | 0.00 | 0.00 | 91 | 1011.3 |
| 20260509142018 | 53 | 0 | 0.0 | 1.0 | 0.00 | 0.00 | 0.00 | 91 | 1011.2 |
| 20260509141532 | 53 | 0 | 0.0 | 1.0 | 0.00 | 0.00 | 0.00 | 91 | 1011.2 |
| 20260509141012 | 53 | 0 | 0.0 | 0.0 | 0.00 | 0.00 | 0.00 | 91 | 1011.2 |
| 20260509140514 | 52 | 0 | 0.0 | 0.0 | 0.00 | 0.00 | 0.00 | 91 | 1011.1 |
| 20260509140029 | 52 | 0 | 0.0 | 0.0 | 0.00 | 0.00 | 0.00 | 91 | 1011.2 |
| 20260509135513 | 52 | 0 | 0.0 | 0.0 | 0.00 | 0.00 | 0.00 | 91 | 1011.3 |
| 20260509135013 | 52 | 0 | 0.0 | 0.0 | 0.00 | 0.00 | 0.00 | 91 | 1011.4 |
| 20260509134556 | 52 | 0 | 0.0 | 0.0 | 0.00 | 0.00 | 0.00 | 91 | 1011.4 |
| 20260509134013 | 52 | 0 | 0.0 | 0.0 | 0.00 | 0.00 | 0.00 | 92 | 1011.3 |
| 20260509133517 | 52 | 0 | 0.0 | 0.0 | 0.00 | 0.00 | 0.00 | 92 | 1011.2 |
| 20260509133032 | 52 | 0 | 0.0 | 0.0 | 0.00 | 0.00 | 0.00 | 91 | 1011.1 |
| 20260509132513 | 51 | 0 | 0.0 | 0.0 | 0.00 | 0.00 | 0.00 | 91 | 1011.2 |
| 20260509132014 | 51 | 0 | 0.0 | 0.0 | 0.00 | 0.00 | 0.00 | 91 | 1011.1 |
| 20260509131531 | 51 | 0 | 0.0 | 0.0 | 0.00 | 0.00 | 0.00 | 91 | 1010.9 |
| 20260509131013 | 51 | 0 | 0.0 | 0.0 | 0.00 | 0.00 | 0.00 | 91 | 1010.8 |
| 20260509130517 | 51 | 0 | 0.0 | 0.0 | 0.00 | 0.00 | 0.00 | 91 | 1010.9 |
| 20260509130042 | 51 | 0 | 0.0 | 0.0 | 0.00 | 0.00 | 0.00 | 91 | 1010.8 |
| 20260509125514 | 51 | 0 | 0.0 | 0.0 | 0.00 | 0.00 | 0.00 | 90 | 1011.0 |
| 20260509125012 | 51 | 0 | 0.0 | 0.0 | 0.00 | 0.00 | 0.00 | 91 | 1011.1 |
| 20260509124535 | 51 | 0 | 0.0 | 0.0 | 0.00 | 0.00 | 0.00 | 91 | 1011.2 |
| 20260509124013 | 51 | 0 | 0.0 | 0.0 | 0.00 | 0.00 | 0.00 | 91 | 1011.3 |
| 20260509123514 | 51 | 0 | 0.0 | 0.0 | 0.00 | 0.00 | 0.00 | 91 | 1011.4 |
| 20260509123030 | 51 | 0 | 0.0 | 0.0 | 0.00 | 0.00 | 0.00 | 92 | 1011.4 |
| 20260509122512 | 51 | 0 | 0.0 | 0.0 | 0.00 | 0.00 | 0.00 | 91 | 1011.4 |
| 20260509122017 | 51 | 0 | 0.0 | 0.0 | 0.00 | 0.00 | 0.00 | 91 | 1011.4 |
| 20260509121542 | 51 | 0 | 0.0 | 0.0 | 0.00 | 0.00 | 0.00 | 91 | 1011.3 |
| 20260509121013 | 50 | 0 | 0.0 | 0.0 | 0.00 | 0.00 | 0.00 | 91 | 1011.2 |
| 20260509120516 | 50 | 0 | 0.0 | 0.0 | 0.00 | 0.00 | 0.00 | 91 | 1011.3 |
| 20260509120032 | 50 | 0 | 0.0 | 0.0 | 0.00 | 0.00 | 0.00 | 91 | 1011.1 |
| 20260509115513 | 50 | 0 | 0.0 | 3.0 | 0.00 | 0.00 | 0.00 | 92 | 1011.1 |
| 20260509115015 | 50 | 0 | 0.0 | 3.0 | 0.00 | 0.00 | 0.00 | 92 | 1011.1 |
| 20260509114536 | 50 | 0 | 0.0 | 0.0 | 0.00 | 0.00 | 0.00 | 92 | 1011.1 |
| 20260509114012 | 50 | 0 | 0.0 | 0.0 | 0.00 | 0.00 | 0.00 | 92 | 1011.1 |
| 20260509113512 | 50 | 0 | 0.0 | 4.0 | 0.00 | 0.00 | 0.00 | 92 | 1011.2 |
| 20260509113037 | 50 | 0 | 0.0 | 4.0 | 0.00 | 0.00 | 0.00 | 92 | 1010.8 |
| 20260509112512 | 50 | 0 | 0.0 | 4.0 | 0.00 | 0.00 | 0.00 | 92 | 1011.0 |
| 20260509112019 | 50 | 0 | 0.0 | 0.0 | 0.00 | 0.00 | 0.00 | 92 | 1010.9 |
| 20260509111531 | 50 | 0 | 0.0 | 4.0 | 0.00 | 0.00 | 0.00 | 92 | 1010.9 |
| 20260509111012 | 50 | 0 | 0.0 | 4.0 | 0.00 | 0.00 | 0.00 | 92 | 1010.7 |
| 20260509110512 | 50 | 325 | 0.0 | 4.0 | 0.00 | 0.00 | 0.00 | 92 | 1010.7 |
| 20260509110034 | 50 | 0 | 0.0 | 0.0 | 0.00 | 0.00 | 0.00 | 92 | 1010.4 |
| 20260509105513 | 50 | 0 | 0.0 | 0.0 | 0.00 | 0.00 | 0.00 | 91 | 1010.4 |
| 20260509105011 | 49 | 0 | 0.0 | 0.0 | 0.00 | 0.00 | 0.00 | 91 | 1010.4 |
| 20260509104540 | 49 | 0 | 0.0 | 0.0 | 0.00 | 0.00 | 0.00 | 91 | 1010.2 |
| 20260509104013 | 49 | 0 | 0.0 | 0.0 | 0.00 | 0.00 | 0.00 | 90 | 1010.4 |
| 20260509103512 | 49 | 0 | 0.0 | 0.0 | 0.00 | 0.00 | 0.00 | 90 | 1010.4 |
| 20260509103030 | 49 | 0 | 0.0 | 0.0 | 0.00 | 0.00 | 0.00 | 90 | 1010.3 |
| 20260509102518 | 49 | 0 | 0.0 | 0.0 | 0.00 | 0.00 | 0.00 | 89 | 1010.4 |
| 20260509102015 | 49 | 0 | 0.0 | 0.0 | 0.00 | 0.00 | 0.00 | 89 | 1010.5 |
| 20260509101546 | 49 | 0 | 0.0 | 0.0 | 0.00 | 0.00 | 0.00 | 89 | 1010.6 |
| 20260509101014 | 49 | 0 | 0.0 | 0.0 | 0.00 | 0.00 | 0.00 | 89 | 1010.7 |
| 20260509100512 | 49 | 0 | 0.0 | 0.0 | 0.00 | 0.00 | 0.00 | 89 | 1010.7 |
| 20260509100029 | 49 | 0 | 0.0 | 0.0 | 0.00 | 0.00 | 0.00 | 89 | 1010.6 |
| 20260509095513 | 49 | 0 | 0.0 | 0.0 | 0.00 | 0.00 | 0.00 | 89 | 1010.5 |
| 20260509095014 | 49 | 0 | 0.0 | 0.0 | 0.00 | 0.00 | 0.00 | 89 | 1010.5 |
| 20260509094537 | 49 | 0 | 0.0 | 0.0 | 0.00 | 0.00 | 0.00 | 89 | 1010.4 |
| 20260509094012 | 49 | 0 | 0.0 | 0.0 | 0.00 | 0.00 | 0.00 | 89 | 1010.4 |
| 20260509093511 | 49 | 0 | 0.0 | 0.0 | 0.00 | 0.00 | 0.00 | 89 | 1010.6 |
| 20260509093032 | 49 | 0 | 0.0 | 0.0 | 0.00 | 0.00 | 0.00 | 89 | 1010.6 |
| 20260509092512 | 49 | 0 | 0.0 | 0.0 | 0.00 | 0.00 | 0.00 | 89 | 1010.6 |
| 20260509092010 | 49 | 0 | 0.0 | 0.0 | 0.00 | 0.00 | 0.00 | 89 | 1010.6 |
| 20260509091538 | 49 | 0 | 0.0 | 0.0 | 0.00 | 0.00 | 0.00 | 89 | 1010.6 |
| 20260509091013 | 49 | 0 | 0.0 | 0.0 | 0.00 | 0.00 | 0.00 | 88 | 1010.6 |
| 20260509090514 | 49 | 0 | 0.0 | 0.0 | 0.00 | 0.00 | 0.00 | 88 | 1010.5 |
| 20260509090036 | 49 | 0 | 0.0 | 0.0 | 0.00 | 0.00 | 0.00 | 88 | 1010.6 |
| 20260509085513 | 49 | 0 | 0.0 | 0.0 | 0.00 | 0.00 | 0.00 | 88 | 1010.6 |
| 20260509085016 | 49 | 0 | 0.0 | 0.0 | 0.00 | 0.00 | 0.00 | 88 | 1010.7 |
| 20260509084536 | 49 | 0 | 0.0 | 0.0 | 0.00 | 0.00 | 0.00 | 88 | 1010.7 |
| 20260509084013 | 49 | 0 | 0.0 | 0.0 | 0.00 | 0.00 | 0.00 | 88 | 1010.7 |
| 20260509083512 | 49 | 0 | 0.0 | 0.0 | 0.00 | 0.00 | 0.00 | 88 | 1010.9 |
| 20260509083032 | 49 | 0 | 0.0 | 0.0 | 0.00 | 0.00 | 0.00 | 87 | 1010.8 |
| 20260509082514 | 49 | 0 | 0.0 | 0.0 | 0.00 | 0.00 | 0.00 | 87 | 1010.8 |
| 20260509082015 | 49 | 0 | 0.0 | 0.0 | 0.00 | 0.00 | 0.00 | 87 | 1010.7 |
| 20260509081536 | 49 | 0 | 0.0 | 0.0 | 0.00 | 0.00 | 0.00 | 87 | 1010.7 |
| 20260509081014 | 49 | 0 | 0.0 | 0.0 | 0.00 | 0.00 | 0.00 | 87 | 1010.8 |
| 20260509080512 | 49 | 0 | 0.0 | 0.0 | 0.00 | 0.00 | 0.00 | 87 | 1010.8 |
| 20260509080035 | 49 | 0 | 0.0 | 0.0 | 0.00 | 0.00 | 0.00 | 87 | 1010.8 |
| 20260509075512 | 49 | 0 | 0.0 | 0.0 | 0.00 | 0.00 | 0.00 | 87 | 1010.8 |
| 20260509075013 | 49 | 0 | 0.0 | 0.0 | 0.00 | 0.00 | 0.00 | 87 | 1010.9 |
| 20260509074542 | 49 | 0 | 0.0 | 0.0 | 0.00 | 0.00 | 0.00 | 87 | 1010.9 |
| 20260509074013 | 49 | 0 | 0.0 | 0.0 | 0.00 | 0.00 | 0.00 | 87 | 1011.0 |
| 20260509073513 | 50 | 0 | 0.0 | 0.0 | 0.00 | 0.00 | 0.00 | 86 | 1011.1 |
| 20260509073030 | 50 | 0 | 0.0 | 0.0 | 0.00 | 0.00 | 0.00 | 86 | 1011.1 |
| 20260509072512 | 50 | 0 | 0.0 | 0.0 | 0.00 | 0.00 | 0.00 | 86 | 1011.2 |
| 20260509072014 | 50 | 0 | 0.0 | 0.0 | 0.00 | 0.00 | 0.00 | 85 | 1011.3 |
| 20260509071530 | 50 | 0 | 0.0 | 0.0 | 0.00 | 0.00 | 0.00 | 85 | 1011.3 |
| 20260509071013 | 51 | 0 | 0.0 | 0.0 | 0.00 | 0.00 | 0.00 | 83 | 1011.4 |
| 20260509070514 | 51 | 0 | 0.0 | 0.0 | 0.00 | 0.00 | 0.00 | 82 | 1011.5 |
| 20260509070030 | 51 | 0 | 0.0 | 0.0 | 0.00 | 0.00 | 0.00 | 82 | 1011.6 |
| 20260509065513 | 51 | 0 | 0.0 | 0.0 | 0.00 | 0.00 | 0.00 | 82 | 1011.5 |
| 20260509065016 | 51 | 0 | 0.0 | 0.0 | 0.00 | 0.00 | 0.00 | 82 | 1011.5 |
| 20260509064537 | 51 | 0 | 0.0 | 0.0 | 0.00 | 0.00 | 0.00 | 82 | 1011.5 |
| 20260509064013 | 52 | 0 | 0.0 | 0.0 | 0.00 | 0.00 | 0.00 | 81 | 1011.6 |
| 20260509063512 | 52 | 0 | 0.0 | 0.0 | 0.00 | 0.00 | 0.00 | 81 | 1011.7 |
| 20260509063030 | 52 | 0 | 0.0 | 0.0 | 0.00 | 0.00 | 0.00 | 81 | 1011.7 |
| 20260509062517 | 52 | 0 | 0.0 | 0.0 | 0.00 | 0.00 | 0.00 | 81 | 1011.8 |
| 20260509062017 | 52 | 0 | 0.0 | 0.0 | 0.00 | 0.00 | 0.00 | 81 | 1011.7 |
| 20260509061531 | 52 | 0 | 0.0 | 0.0 | 0.00 | 0.00 | 0.00 | 81 | 1011.7 |
| 20260509061021 | 52 | 0 | 0.0 | 0.0 | 0.00 | 0.00 | 0.00 | 80 | 1011.7 |
| 20260509060514 | 52 | 0 | 0.0 | 0.0 | 0.00 | 0.00 | 0.00 | 80 | 1011.7 |
| 20260509060037 | 53 | 0 | 0.0 | 0.0 | 0.00 | 0.00 | 0.00 | 81 | 1011.9 |
| 20260509055515 | 53 | 0 | 0.0 | 0.0 | 0.00 | 0.00 | 0.00 | 80 | 1011.9 |
| 20260509055013 | 53 | 0 | 0.0 | 0.0 | 0.00 | 0.00 | 0.00 | 81 | 1011.8 |
| 20260509054543 | 53 | 0 | 0.0 | 0.0 | 0.00 | 0.00 | 0.00 | 81 | 1011.9 |
| 20260509054013 | 53 | 0 | 0.0 | 0.0 | 0.00 | 0.00 | 0.00 | 81 | 1012.0 |
| 20260509053514 | 53 | 0 | 0.0 | 0.0 | 0.00 | 0.00 | 0.00 | 81 | 1011.9 |
| 20260509053030 | 53 | 0 | 0.0 | 0.0 | 0.00 | 0.00 | 0.00 | 81 | 1011.9 |
| 20260509052514 | 53 | 0 | 0.0 | 0.0 | 0.00 | 0.00 | 0.00 | 82 | 1012.0 |
| 20260509052013 | 53 | 0 | 0.0 | 8.0 | 0.00 | 0.00 | 0.00 | 82 | 1012.1 |
| 20260509051533 | 53 | 0 | 0.0 | 8.0 | 0.00 | 0.00 | 0.00 | 83 | 1012.1 |
| 20260509051014 | 53 | 0 | 0.0 | 0.0 | 0.00 | 0.00 | 0.00 | 83 | 1012.1 |
| 20260509050514 | 52 | 0 | 0.0 | 0.0 | 0.00 | 0.00 | 0.00 | 83 | 1012.1 |
| 20260509050036 | 52 | 0 | 0.0 | 0.0 | 0.00 | 0.00 | 0.00 | 84 | 1012.1 |
| 20260509045518 | 52 | 0 | 0.0 | 0.0 | 0.00 | 0.00 | 0.00 | 84 | 1012.1 |
| 20260509045013 | 52 | 0 | 0.0 | 0.0 | 0.00 | 0.00 | 0.00 | 85 | 1012.1 |
| 20260509044530 | 52 | 0 | 0.0 | 0.0 | 0.00 | 0.00 | 0.00 | 85 | 1012.1 |
| 20260509044015 | 52 | 0 | 0.0 | 0.0 | 0.00 | 0.00 | 0.00 | 86 | 1012.0 |
| 20260509043513 | 52 | 0 | 0.0 | 0.0 | 0.00 | 0.00 | 0.00 | 86 | 1012.0 |
| 20260509043032 | 52 | 0 | 0.0 | 0.0 | 0.00 | 0.00 | 0.00 | 85 | 1012.0 |
| 20260509042517 | 52 | 0 | 0.0 | 0.0 | 0.00 | 0.00 | 0.00 | 85 | 1012.0 |
| 20260509042015 | 52 | 0 | 0.0 | 0.0 | 0.00 | 0.00 | 0.00 | 85 | 1012.0 |
| 20260509041550 | 52 | 0 | 0.0 | 0.0 | 0.00 | 0.00 | 0.00 | 84 | 1012.1 |
| 20260509041014 | 52 | 0 | 0.0 | 0.0 | 0.00 | 0.00 | 0.00 | 84 | 1012.1 |
| 20260509040511 | 52 | 0 | 0.0 | 0.0 | 0.00 | 0.00 | 0.00 | 85 | 1012.1 |
| 20260509040031 | 52 | 0 | 0.0 | 0.0 | 0.00 | 0.00 | 0.00 | 85 | 1012.1 |
| 20260509035518 | 52 | 0 | 0.0 | 0.0 | 0.00 | 0.00 | 0.00 | 83 | 1012.1 |
| 20260509035015 | 52 | 0 | 0.0 | 0.0 | 0.00 | 0.00 | 0.00 | 84 | 1012.0 |
| 20260509034531 | 52 | 0 | 0.0 | 0.0 | 0.00 | 0.00 | 0.00 | 84 | 1012.1 |
| 20260509034012 | 52 | 0 | 0.0 | 0.0 | 0.00 | 0.00 | 0.00 | 84 | 1012.2 |
| 20260509033514 | 53 | 0 | 0.0 | 0.0 | 0.00 | 0.00 | 0.00 | 83 | 1012.2 |
| 20260509033030 | 53 | 0 | 0.0 | 0.0 | 0.00 | 0.00 | 0.00 | 83 | 1012.3 |
| 20260509032514 | 53 | 0 | 0.0 | 0.0 | 0.00 | 0.00 | 0.00 | 83 | 1012.3 |
| 20260509032015 | 53 | 0 | 0.0 | 0.0 | 0.00 | 0.00 | 0.00 | 83 | 1012.3 |
| 20260509031537 | 53 | 0 | 0.0 | 0.0 | 0.00 | 0.00 | 0.00 | 82 | 1012.3 |
| 20260509031014 | 53 | 0 | 0.0 | 0.0 | 0.00 | 0.00 | 0.00 | 82 | 1012.4 |
| 20260509030516 | 53 | 0 | 0.0 | 0.0 | 0.00 | 0.00 | 0.00 | 81 | 1012.4 |
| 20260509030033 | 53 | 0 | 0.0 | 0.0 | 0.00 | 0.00 | 0.00 | 80 | 1012.3 |
| 20260509025514 | 53 | 0 | 0.0 | 0.0 | 0.00 | 0.00 | 0.00 | 81 | 1012.2 |
| 20260509025016 | 53 | 0 | 0.0 | 0.0 | 0.00 | 0.00 | 0.00 | 81 | 1012.2 |
| 20260509024530 | 53 | 0 | 0.0 | 0.0 | 0.00 | 0.00 | 0.00 | 82 | 1012.2 |
| 20260509024014 | 53 | 0 | 0.0 | 0.0 | 0.00 | 0.00 | 0.00 | 84 | 1012.3 |
| 20260509023514 | 53 | 0 | 0.0 | 0.0 | 0.00 | 0.00 | 0.00 | 84 | 1012.3 |
| 20260509023031 | 53 | 0 | 0.0 | 0.0 | 0.00 | 0.00 | 0.00 | 83 | 1012.3 |
| 20260509022515 | 53 | 0 | 0.0 | 0.0 | 0.00 | 0.00 | 0.00 | 83 | 1012.3 |
| 20260509022014 | 53 | 0 | 0.0 | 0.0 | 0.00 | 0.00 | 0.00 | 83 | 1012.1 |
| 20260509021536 | 53 | 0 | 0.0 | 0.0 | 0.00 | 0.00 | 0.00 | 82 | 1012.2 |
| 20260509021013 | 54 | 0 | 0.0 | 0.0 | 0.00 | 0.00 | 0.00 | 82 | 1012.1 |
| 20260509020513 | 54 | 0 | 0.0 | 0.0 | 0.00 | 0.00 | 0.00 | 82 | 1012.1 |
| 20260509020042 | 54 | 0 | 0.0 | 0.0 | 0.00 | 0.00 | 0.00 | 81 | 1012.1 |
| 20260509015514 | 54 | 0 | 0.0 | 0.0 | 0.00 | 0.00 | 0.00 | 80 | 1012.0 |
| 20260509015014 | 54 | 0 | 0.0 | 0.0 | 0.00 | 0.00 | 0.00 | 78 | 1011.9 |
| 20260509014532 | 54 | 0 | 0.0 | 0.0 | 0.00 | 0.00 | 0.00 | 76 | 1012.0 |
| 20260509014012 | 54 | 0 | 0.0 | 0.0 | 0.00 | 0.00 | 0.00 | 76 | 1012.1 |
| 20260509013513 | 54 | 0 | 0.0 | 0.0 | 0.00 | 0.00 | 0.00 | 76 | 1012.1 |
| 20260509013040 | 54 | 0 | 0.0 | 0.0 | 0.00 | 0.00 | 0.00 | 76 | 1012.1 |
| 20260509012514 | 54 | 0 | 0.0 | 0.0 | 0.00 | 0.00 | 0.00 | 76 | 1012.1 |
| 20260509012013 | 54 | 0 | 0.0 | 0.0 | 0.00 | 0.00 | 0.00 | 77 | 1012.1 |
| 20260509011533 | 54 | 0 | 0.0 | 0.0 | 0.00 | 0.00 | 0.00 | 74 | 1012.1 |
| 20260509011013 | 55 | 0 | 0.0 | 0.0 | 0.00 | 0.00 | 0.00 | 73 | 1012.0 |
| 20260509010517 | 55 | 0 | 0.0 | 0.0 | 0.00 | 0.00 | 0.00 | 74 | 1011.9 |
| 20260509010038 | 55 | 0 | 0.0 | 0.0 | 0.00 | 0.00 | 0.00 | 74 | 1011.9 |
| 20260509005515 | 55 | 0 | 0.0 | 0.0 | 0.00 | 0.00 | 0.00 | 73 | 1011.9 |
| 20260509005013 | 55 | 0 | 0.0 | 0.0 | 0.00 | 0.00 | 0.00 | 71 | 1011.9 |
| 20260509004534 | 55 | 0 | 0.0 | 0.0 | 0.00 | 0.00 | 0.00 | 71 | 1011.8 |
| 20260509004013 | 55 | 0 | 0.0 | 0.0 | 0.00 | 0.00 | 0.00 | 70 | 1011.8 |
| 20260509003514 | 56 | 0 | 0.0 | 0.0 | 0.00 | 0.00 | 0.00 | 70 | 1011.8 |
| 20260509003030 | 56 | 0 | 0.0 | 0.0 | 0.00 | 0.00 | 0.00 | 70 | 1011.8 |
| 20260509002513 | 56 | 0 | 0.0 | 0.0 | 0.00 | 0.00 | 0.00 | 70 | 1011.9 |
| 20260509002012 | 56 | 0 | 0.0 | 0.0 | 0.00 | 0.00 | 0.00 | 70 | 1011.9 |
| 20260509001532 | 56 | 0 | 0.0 | 0.0 | 0.00 | 0.00 | 0.00 | 70 | 1011.8 |
| 20260509001013 | 56 | 0 | 0.0 | 0.0 | 0.00 | 0.00 | 0.00 | 71 | 1011.9 |
| 20260509000517 | 56 | 0 | 0.0 | 0.0 | 0.00 | 0.00 | 0.00 | 71 | 1011.7 |
| 20260509000031 | 56 | 0 | 0.0 | 0.0 | 0.00 | 0.00 | 0.00 | 70 | 1011.7 |
| 20260508235513 | 57 | 0 | 0.0 | 0.0 | 0.00 | 0.00 | 0.00 | 70 | 1011.7 |
| 20260508235013 | 57 | 0 | 0.0 | 0.0 | 0.00 | 0.00 | 0.00 | 67 | 1011.6 |
| 20260508234533 | 57 | 0 | 0.0 | 0.0 | 0.00 | 0.00 | 0.00 | 68 | 1011.5 |
| 20260508234011 | 57 | 0 | 0.0 | 0.0 | 0.00 | 0.00 | 0.00 | 67 | 1011.4 |
| 20260508233517 | 57 | 0 | 0.0 | 0.0 | 0.00 | 0.00 | 0.00 | 67 | 1011.2 |
| 20260508233031 | 58 | 0 | 0.0 | 0.0 | 0.00 | 0.00 | 0.00 | 69 | 1011.3 |
| 20260508232516 | 58 | 0 | 0.0 | 0.0 | 0.00 | 0.00 | 0.00 | 67 | 1011.2 |
| 20260508232012 | 57 | 0 | 0.0 | 1.0 | 0.00 | 0.00 | 0.00 | 66 | 1011.1 |
| 20260508231532 | 57 | 0 | 0.0 | 1.0 | 0.00 | 0.00 | 0.00 | 67 | 1011.0 |
| 20260508231015 | 57 | 0 | 0.0 | 3.0 | 0.00 | 0.00 | 0.00 | 67 | 1011.1 |
| 20260508230513 | 57 | 0 | 0.0 | 4.0 | 0.00 | 0.00 | 0.00 | 67 | 1011.1 |
| 20260508230039 | 57 | 0 | 0.0 | 10.0 | 0.00 | 0.00 | 0.00 | 66 | 1011.2 |
| 20260508225518 | 57 | 0 | 0.0 | 10.0 | 0.00 | 0.00 | 0.00 | 65 | 1011.3 |
| 20260508225012 | 57 | 13 | 0.0 | 9.0 | 0.00 | 0.00 | 0.00 | 64 | 1011.3 |
| 20260508224531 | 58 | 352 | 0.0 | 9.0 | 0.00 | 0.00 | 0.00 | 64 | 1011.3 |
| 20260508224013 | 58 | 360 | 1.0 | 9.0 | 0.00 | 0.00 | 0.00 | 63 | 1011.3 |
| 20260508223516 | 58 | 0 | 0.0 | 11.0 | 0.00 | 0.00 | 0.00 | 63 | 1011.3 |
| 20260508223032 | 58 | 0 | 1.0 | 13.0 | 0.00 | 0.00 | 0.00 | 62 | 1011.3 |
| 20260508222512 | 58 | 5 | 4.0 | 13.0 | 0.00 | 0.00 | 0.00 | 62 | 1011.2 |
| 20260508222015 | 59 | 338 | 9.0 | 13.0 | 0.00 | 0.00 | 0.00 | 60 | 1011.2 |
| 20260508221530 | 59 | 348 | 4.0 | 10.0 | 0.00 | 0.00 | 0.00 | 61 | 1011.1 |
| 20260508221014 | 59 | 0 | 0.0 | 10.0 | 0.00 | 0.00 | 0.00 | 60 | 1011.1 |
| 20260508220514 | 59 | 313 | 4.0 | 10.0 | 0.00 | 0.00 | 0.00 | 58 | 1011.1 |
| 20260508220030 | 59 | 324 | 4.0 | 15.0 | 0.00 | 0.00 | 0.00 | 58 | 1011.1 |
| 20260508215521 | 60 | 333 | 9.0 | 17.0 | 0.00 | 0.00 | 0.00 | 56 | 1011.1 |
| 20260508215014 | 60 | 298 | 8.0 | 17.0 | 0.00 | 0.00 | 0.00 | 56 | 1011.1 |
| 20260508214534 | 61 | 288 | 8.0 | 15.0 | 0.00 | 0.00 | 0.00 | 53 | 1011.1 |
| 20260508214014 | 61 | 334 | 9.0 | 15.0 | 0.00 | 0.00 | 0.00 | 51 | 1011.1 |
| 20260508213513 | 61 | 321 | 7.0 | 15.0 | 0.00 | 0.00 | 0.00 | 50 | 1011.0 |
| 20260508213038 | 62 | 271 | 1.0 | 13.0 | 0.00 | 0.00 | 0.00 | 51 | 1010.9 |
| 20260508212513 | 62 | 0 | 0.0 | 0.0 | 0.00 | 0.00 | 0.00 | 50 | 1010.8 |
| 20260508212015 | 62 | 0 | 0.0 | 0.0 | 0.00 | 0.00 | 0.00 | 49 | 1010.7 |
| 20260508211538 | 62 | 0 | 0.0 | 0.0 | 0.00 | 0.00 | 0.00 | 50 | 1010.8 |
| 20260508211015 | 62 | 0 | 0.0 | 0.0 | 0.00 | 0.00 | 0.00 | 50 | 1010.7 |
| 20260508210512 | 62 | 0 | 0.0 | 0.0 | 0.00 | 0.00 | 0.00 | 49 | 1010.8 |
| 20260508210030 | 62 | 0 | 0.0 | 0.0 | 0.00 | 0.00 | 0.00 | 51 | 1010.7 |
| 20260508205512 | 62 | 0 | 0.0 | 0.0 | 0.00 | 0.00 | 0.00 | 51 | 1010.6 |
| 20260508205013 | 62 | 0 | 0.0 | 0.0 | 0.00 | 0.00 | 0.00 | 52 | 1010.8 |
| 20260508204531 | 62 | 0 | 0.0 | 0.0 | 0.00 | 0.00 | 0.00 | 50 | 1010.9 |
| 20260508204013 | 62 | 0 | 0.0 | 0.0 | 0.00 | 0.00 | 0.00 | 51 | 1010.8 |
| 20260508203513 | 62 | 0 | 0.0 | 0.0 | 0.00 | 0.00 | 0.00 | 51 | 1010.8 |
| 20260508203035 | 62 | 0 | 0.0 | 0.0 | 0.00 | 0.00 | 0.00 | 50 | 1010.8 |
| 20260508202513 | 62 | 0 | 0.0 | 0.0 | 0.00 | 0.00 | 0.00 | 49 | 1010.8 |
| 20260508202013 | 62 | 0 | 0.0 | 0.0 | 0.00 | 0.00 | 0.00 | 50 | 1010.8 |